Date,TemperatureHighF,TemperatureAvgF,TemperatureLowF,DewpointHighF,DewpointAvgF,DewpointLowF,HumidityHigh,HumidityAvg,HumidityLow,PressureMaxIn,PressureMinIn,WindSpeedMaxMPH,WindSpeedAvgMPH,GustSpeedMaxMPH,PrecipitationSumIn
2013-1-1,33.1,26.4,14.0,29.5,19.3,6.4,88,75,55,29.81,29.56,16,6,17,0.00
2013-1-2,18.1,12.3,5.9,8.8,4.9,-1.5,82,72,59,29.99,29.79,20,8,24,0.00
2013-1-3,20.7,12.7,5.2,11.1,5.3,-0.8,81,72,61,30.06,29.92,11,4,13,0.00
2013-1-4,35.8,27.7,13.8,29.7,22.4,8.2,92,80,72,29.93,29.69,11,2,11,0.00
2013-1-5,35.4,28.7,15.1,30.4,19.2,7.3,82,68,50,30.28,29.68,22,5,23,0.00
2013-1-6,28.9,22.5,13.6,27.3,19.6,6.8,95,89,71,30.25,29.90,5,0,5,0.00
2013-1-7,24.3,17.5,12.2,23.0,12.9,5.9,95,82,70,30.43,29.96,11,2,12,0.00
2013-1-8,40.8,35.8,16.3,34.7,29.5,12.0,94,78,66,30.37,30.16,14,-1,15,0.00
2013-1-9,41.9,35.7,27.1,39.2,32.3,25.3,96,87,74,30.41,29.83,8,-3,10,0.00
2013-1-10,42.1,38.1,31.3,34.3,28.7,22.8,83,69,56,30.49,29.83,25,8,31,0.00
2013-1-11,35.2,31.0,26.4,27.9,22.4,19.8,82,71,55,30.53,30.27,9,1,10,0.00
2013-1-12,42.4,38.6,32.4,40.6,34.3,25.9,94,84,75,30.29,30.10,5,0,6,0.00
2013-1-13,46.0,43.0,41.0,46.0,42.7,40.1,100,99,94,30.14,29.94,8,1,12,0.00
2013-1-14,50.2,44.9,37.8,49.8,41.5,27.1,100,89,60,30.19,29.83,16,3,16,0.00
2013-1-15,37.9,33.6,29.3,29.3,25.2,20.1,84,71,60,30.31,30.17,9,1,11,0.00
2013-1-16,36.3,32.3,28.2,35.8,28.6,18.5,98,87,62,30.29,29.74,5,-10,7,0.00
2013-1-17,39.6,31.3,14.7,38.7,24.2,-4.7,99,76,38,30.14,29.72,15,4,17,0.00
2013-1-18,20.3,13.3,7.3,7.5,1.9,-4.9,78,60,48,30.40,30.09,14,4,19,0.00
2013-1-19,35.1,30.5,20.1,32.4,26.9,7.0,98,87,56,30.38,29.91,8,1,11,0.00
2013-1-20,47.1,39.8,25.5,41.5,32.7,10.8,99,77,48,29.91,29.42,21,4,21,0.00
2013-1-21,25.3,19.5,15.1,16.2,6.4,1.0,89,57,42,30.04,29.79,17,4,20,0.00
2013-1-22,17.8,13.7,10.8,15.3,5.7,-1.5,90,70,55,29.96,29.77,15,4,17,0.00
2013-1-23,11.7,5.2,1.2,0.9,-4.8,-7.4,74,63,53,30.04,29.96,17,7,21,0.00
2013-1-24,12.2,5.7,0.0,0.3,-3.7,-7.2,78,65,48,30.05,29.85,20,7,22,0.00
2013-1-25,21.0,13.4,5.0,7.3,3.3,-3.3,77,64,46,30.14,30.03,18,6,20,0.00
2013-1-26,18.9,13.7,8.8,5.4,2.4,-0.8,74,61,44,30.08,29.94,17,4,18,0.00
2013-1-27,22.6,16.2,9.7,10.8,6.1,0.9,73,64,56,30.37,30.06,20,9,20,0.00
2013-1-28,26.6,20.1,13.6,20.8,7.8,1.0,91,60,37,30.40,30.08,15,-2,15,0.00
2013-1-29,35.4,27.9,19.9,28.0,21.3,15.1,91,76,58,30.23,30.06,5,0,9,0.00
2013-1-30,50.0,43.1,32.5,50.0,42.2,27.7,100,97,82,30.18,29.47,14,2,18,0.00
2013-1-31,53.2,45.8,33.6,52.9,41.7,19.8,100,87,56,29.47,28.83,27,5,29,0.00
2013-2-1,33.6,25.4,15.3,20.8,11.4,5.2,69,55,47,29.99,29.37,16,6,19,0.00
2013-2-2,26.2,19.4,12.6,20.3,9.3,1.6,88,65,46,30.20,29.99,13,2,13,0.00
2013-2-3,29.7,24.3,21.4,24.3,20.7,17.8,94,86,76,30.06,29.64,9,1,13,0.00
2013-2-4,27.9,22.5,16.9,18.9,12.2,0.7,87,65,46,29.83,29.56,19,7,23,0.00
2013-2-5,21.6,16.2,13.5,5.2,1.1,-2.0,65,51,37,30.04,29.83,12,3,14,0.00
2013-2-6,33.4,24.2,15.4,29.5,16.5,4.1,94,73,47,30.23,29.91,16,2,17,0.00
2013-2-7,18.9,11.3,6.6,7.0,-3.3,-9.2,66,52,38,30.62,30.23,17,5,21,0.00
2013-2-8,21.0,13.5,5.9,17.2,7.8,-6.7,92,78,55,30.62,29.90,15,2,18,0.00
2013-2-9,19.8,16.4,12.0,18.1,14.8,9.9,94,93,91,30.01,29.62,28,8,34,0.00
2013-2-10,31.6,23.1,14.7,17.1,12.6,8.1,91,65,43,30.35,30.01,17,5,20,0.00
2013-2-11,42.6,29.8,16.5,42.4,27.5,12.0,99,91,70,30.35,29.55,13,1,13,0.00
2013-2-12,41.9,37.6,33.8,38.5,33.8,30.7,99,87,72,29.72,29.48,10,2,12,0.00
2013-2-13,41.7,35.4,31.1,31.3,29.2,27.1,93,79,57,29.78,29.70,6,1,7,0.00
2013-2-14,37.8,32.5,27.0,29.8,24.2,20.5,92,72,51,30.01,29.70,8,1,11,0.00
2013-2-15,43.7,36.3,26.1,38.7,33.2,22.8,97,88,76,30.01,29.93,13,-10,14,0.00
2013-2-16,39.4,33.3,27.7,38.3,32.0,26.6,99,95,84,29.93,29.74,9,1,11,0.00
2013-2-17,27.7,23.6,19.4,26.6,21.5,14.4,96,92,73,29.74,28.99,30,9,33,0.00
2013-2-18,28.9,23.2,18.3,16.0,10.1,6.6,86,57,46,29.91,29.27,30,10,30,0.00
2013-2-19,42.1,32.1,22.6,40.8,19.8,7.7,96,62,31,30.08,29.69,11,2,14,0.00
2013-2-20,44.2,37.5,30.0,43.5,32.1,20.5,98,81,64,29.69,29.36,17,4,17,0.00
2013-2-21,34.9,29.2,24.6,30.9,22.4,15.4,93,76,63,30.06,29.57,12,1,17,0.00
2013-2-22,37.9,32.1,27.0,28.8,24.5,21.6,83,74,57,30.37,30.06,13,2,14,0.00
2013-2-23,34.2,30.9,26.2,28.4,26.5,22.3,91,84,78,30.36,30.07,8,1,9,0.00
2013-2-24,33.3,30.7,28.9,30.4,28.6,25.9,96,92,80,30.07,29.78,9,1,14,0.00
2013-2-25,38.3,29.2,23.9,26.4,20.8,10.9,91,73,34,30.24,29.86,8,1,9,0.00
2013-2-26,42.6,31.9,24.6,30.0,25.9,21.2,93,79,57,30.36,30.23,7,0,7,0.00
2013-2-27,41.5,34.0,27.1,33.3,29.7,25.2,97,85,56,30.29,29.72,12,1,14,0.00
2013-2-28,40.5,37.4,33.8,39.9,36.9,33.3,99,98,97,29.73,29.50,14,2,19,0.00
2013-3-1,34.2,32.5,31.3,34.0,32.0,30.7,99,98,97,29.61,29.49,10,-5,13,0.00
2013-3-2,36.9,33.8,31.5,35.2,33.0,30.6,99,97,92,29.60,29.55,11,3,13,0.00
2013-3-3,41.5,36.9,34.3,37.4,35.3,33.3,99,94,83,29.57,29.46,9,2,9,0.00
2013-3-4,36.0,33.7,32.0,34.9,32.5,30.7,99,95,89,29.62,29.41,12,4,14,0.00
2013-3-5,43.9,36.9,33.6,38.1,35.1,33.4,99,93,78,30.12,29.62,12,2,12,0.00
2013-3-6,39.4,34.7,32.9,34.2,30.5,26.8,96,85,75,30.28,30.12,15,-1,21,0.00
2013-3-7,38.1,34.7,32.5,28.4,27.2,25.9,81,74,64,30.24,30.07,20,4,20,0.00
2013-3-8,45.9,36.8,31.5,28.9,26.6,24.8,82,67,45,30.19,30.04,19,4,23,0.00
2013-3-9,43.2,34.2,28.9,30.6,26.8,24.3,86,75,55,30.39,30.18,12,2,12,0.00
2013-3-10,36.9,32.1,28.8,31.1,27.3,24.6,90,83,72,30.43,30.30,5,-14,8,0.00
2013-3-11,42.3,39.0,34.5,39.6,36.1,31.3,96,89,82,30.33,30.18,10,2,13,0.00
2013-3-12,51.1,45.9,40.6,48.0,43.6,39.6,98,92,80,30.19,29.83,18,3,23,0.00
2013-3-13,49.5,44.2,36.9,49.3,43.1,32.2,99,96,81,29.83,29.61,18,3,21,0.00
2013-3-14,43.5,35.7,25.9,32.9,29.1,21.6,96,78,54,29.68,29.59,13,2,15,0.00
2013-3-15,33.8,26.4,20.3,23.5,16.7,11.7,88,68,43,29.73,29.59,14,5,16,0.00
2013-3-16,34.3,29.6,25.0,24.1,18.1,12.9,88,63,44,29.88,29.60,13,-7,15,0.00
2013-3-17,30.6,25.0,19.2,15.8,9.8,1.0,70,53,35,30.27,29.87,18,6,20,0.00
2013-3-18,32.9,24.4,16.3,17.2,6.6,0.1,63,47,31,30.42,30.27,14,4,15,0.00
2013-3-19,28.8,27.3,26.2,26.2,22.0,10.4,96,82,46,30.30,29.62,14,2,16,0.00
2013-3-20,34.3,27.8,20.7,29.1,24.3,19.0,97,87,72,29.69,29.52,17,0,19,0.00
2013-3-21,38.7,33.2,29.1,30.4,26.1,22.6,95,76,55,29.76,29.58,8,1,11,0.00
2013-3-22,39.9,32.7,26.1,29.5,23.3,18.7,91,70,46,29.60,29.53,11,3,12,0.00
2013-3-23,39.0,33.9,27.1,28.2,24.0,19.9,77,67,53,29.58,29.40,19,5,19,0.00
2013-3-24,43.9,38.0,32.2,30.0,28.0,25.9,87,67,52,29.75,29.55,13,4,15,0.00
2013-3-25,44.8,36.5,28.8,34.0,30.6,25.7,95,80,59,29.75,29.57,15,1,15,0.00
2013-3-26,46.8,38.3,31.1,33.3,29.0,24.4,84,70,48,29.67,29.50,12,3,15,0.00
2013-3-27,39.6,37.2,35.2,38.3,34.8,30.9,97,91,81,29.82,29.65,10,4,11,0.00
2013-3-28,48.2,40.2,35.8,37.2,35.0,33.1,96,82,60,29.92,29.82,8,1,9,0.00
2013-3-29,52.0,44.5,35.8,39.7,35.5,32.7,91,71,53,29.97,29.89,9,2,10,0.00
2013-3-30,53.1,42.2,33.1,35.1,31.1,21.0,91,68,30,30.06,29.95,9,1,11,0.00
2013-3-31,49.5,39.9,29.7,38.5,27.9,19.4,91,65,33,30.12,29.90,8,1,9,0.00
2013-4-1,45.0,41.9,36.1,43.7,39.9,30.7,99,93,79,29.90,29.46,16,-9,20,0.00
2013-4-2,37.2,32.8,29.3,30.7,19.1,13.5,81,57,40,29.78,29.61,16,5,16,0.00
2013-4-3,39.7,33.7,29.5,22.5,19.3,14.9,72,55,44,29.96,29.75,19,7,20,0.00
2013-4-4,47.5,37.7,30.9,36.0,22.1,11.7,83,55,27,30.15,29.96,14,4,18,0.00
2013-4-5,47.8,42.2,37.6,38.5,35.3,27.3,88,77,60,29.96,29.65,18,3,18,0.00
2013-4-6,38.5,33.7,28.9,26.6,15.5,5.0,69,48,27,30.34,29.74,21,8,25,0.00
2013-4-7,43.9,36.2,25.9,39.0,25.9,11.1,90,67,46,30.35,29.96,17,2,18,0.00
2013-4-8,56.7,47.3,39.2,41.5,39.1,34.7,94,75,51,30.15,29.88,15,2,17,0.00
2013-4-9,43.0,40.5,36.5,42.1,38.9,33.8,99,94,80,30.15,29.90,10,0,10,0.00
2013-4-10,52.7,42.9,39.6,47.8,41.8,39.4,99,96,80,29.99,29.88,7,0,7,0.00
2013-4-11,47.7,42.0,36.7,42.1,28.4,17.1,98,62,30,30.18,29.86,12,2,13,0.00
2013-4-12,40.1,35.0,32.2,33.4,26.4,18.5,97,72,48,30.27,29.92,10,1,12,0.00
2013-4-13,41.4,37.2,33.4,38.3,35.6,32.7,98,94,85,29.92,29.76,9,1,10,0.00
2013-4-14,48.6,41.2,37.8,43.7,39.6,36.7,98,94,78,30.15,29.91,7,0,9,0.00
2013-4-15,47.8,40.2,35.4,41.5,37.8,34.3,99,91,76,30.44,30.14,9,1,9,0.00
2013-4-16,48.9,43.1,37.2,45.0,40.8,36.1,97,92,78,30.44,29.95,16,2,16,0.00
2013-4-17,57.9,49.6,41.7,47.8,36.1,28.4,98,62,34,30.35,29.94,14,5,18,0.00
2013-4-18,49.8,42.3,32.4,37.8,30.3,21.9,83,64,37,30.48,30.19,9,1,12,0.00
2013-4-19,54.1,49.4,45.0,53.8,47.9,37.4,99,95,74,30.19,29.71,16,2,18,0.00
2013-4-20,54.1,49.1,44.1,53.4,46.1,33.1,100,90,65,30.11,29.60,15,2,17,0.00
2013-4-21,48.7,42.1,35.6,33.6,26.7,17.2,77,56,30,30.70,30.11,13,4,13,0.00
2013-4-22,49.3,40.0,31.5,36.5,28.5,20.1,93,65,36,30.82,30.69,9,1,9,0.00
2013-4-23,44.8,39.1,31.8,41.7,36.4,30.6,98,90,76,30.69,30.21,8,1,9,0.00
2013-4-24,54.0,47.1,42.3,53.6,46.7,41.7,100,99,96,30.21,29.73,11,1,14,0.00
2013-4-25,61.9,50.7,43.3,50.5,43.4,32.7,100,79,41,30.27,29.83,15,2,19,0.00
2013-4-26,56.5,46.2,37.9,39.9,35.9,32.5,89,69,47,30.43,30.27,8,1,10,0.00
2013-4-27,54.1,44.5,35.1,38.3,34.7,29.1,97,71,42,30.43,30.29,7,1,8,0.00
2013-4-28,59.5,47.2,37.0,44.2,39.8,35.6,96,77,50,30.35,30.26,9,0,9,0.00
2013-4-29,59.9,48.2,37.2,46.4,41.8,36.1,98,80,50,30.30,30.25,7,0,8,0.00
2013-4-30,61.2,49.2,38.5,47.7,39.5,31.1,99,73,33,30.38,30.27,7,0,8,0.00
2013-5-1,61.0,49.9,38.8,44.1,37.1,29.1,97,66,31,30.47,30.38,8,1,10,0.00
2013-5-2,61.3,50.4,41.2,47.5,41.6,37.9,96,74,50,30.54,30.42,9,1,9,0.00
2013-5-3,60.3,49.3,40.5,46.6,41.8,37.4,91,76,59,30.56,30.38,10,1,10,0.00
2013-5-4,57.0,46.8,38.1,43.3,39.0,36.1,94,76,51,30.42,30.33,8,1,11,0.00
2013-5-5,57.0,46.5,36.9,43.0,39.9,36.1,99,79,56,30.34,30.26,8,1,13,0.00
2013-5-6,57.7,47.8,41.2,48.0,43.4,40.3,98,86,65,30.29,30.19,7,1,8,0.00
2013-5-7,62.4,50.1,42.6,53.2,47.1,42.4,99,90,68,30.19,30.11,10,1,10,0.00
2013-5-8,68.7,56.6,47.1,59.7,53.5,46.6,99,90,70,30.27,30.17,8,0,10,0.00
2013-5-9,58.3,54.1,50.4,57.4,53.3,50.0,99,97,94,30.17,29.92,4,0,5,0.00
2013-5-10,60.1,53.4,49.8,57.9,52.5,49.3,100,97,87,29.99,29.89,7,0,10,0.00
2013-5-11,56.7,52.4,48.2,56.1,51.8,48.0,99,98,91,29.97,29.73,10,1,11,0.00
2013-5-12,54.1,52.2,47.8,54.0,52.1,47.3,100,100,99,29.73,29.54,9,1,9,0.00
2013-5-13,53.2,48.2,43.5,47.3,41.4,37.9,99,78,57,29.99,29.69,14,2,17,0.00
2013-5-14,56.7,49.0,43.2,43.2,37.8,33.1,94,66,43,29.99,29.91,8,1,9,0.00
2013-5-15,59.2,50.0,40.1,47.5,40.2,32.4,98,71,39,30.00,29.70,12,1,13,0.00
2013-5-16,65.1,55.1,47.8,55.8,50.1,44.4,99,85,59,29.75,29.56,10,1,16,0.00
2013-5-17,58.6,52.7,45.0,46.2,43.5,40.5,91,72,55,30.19,29.75,11,2,12,0.00
2013-5-18,58.6,48.3,41.2,46.4,42.1,39.2,97,80,59,30.36,30.19,7,0,8,0.00
2013-5-19,61.2,49.6,40.3,49.6,44.5,39.2,98,84,62,30.39,30.27,7,0,8,0.00
2013-5-20,57.6,52.7,49.5,55.9,51.8,47.8,99,97,91,30.27,29.94,13,-6,14,0.00
2013-5-21,51.1,49.2,48.2,50.4,48.6,47.5,99,98,96,30.08,30.00,5,0,6,0.00
2013-5-22,52.7,49.7,47.7,51.4,49.2,47.1,99,98,94,30.06,29.94,10,-7,10,0.00
2013-5-23,58.3,52.6,46.9,56.5,52.2,46.8,100,99,93,29.96,29.84,7,1,10,0.00
2013-5-24,60.1,55.5,50.2,60.1,55.5,49.6,100,100,99,29.86,29.68,9,2,16,0.00
2013-5-25,51.8,50.3,48.4,51.8,50.1,48.2,100,99,98,29.82,29.69,11,-3,12,0.00
2013-5-26,51.3,48.2,45.7,48.7,47.2,43.7,100,96,88,29.91,29.62,11,1,11,0.00
2013-5-27,63.7,51.8,43.5,47.3,42.4,36.1,94,73,38,30.16,29.91,9,-2,11,0.00
2013-5-28,66.9,54.3,41.2,49.8,43.9,40.3,99,71,43,30.24,30.16,8,0,9,0.00
2013-5-29,55.0,51.5,47.1,54.7,50.4,43.2,100,96,82,30.24,30.00,9,0,10,0.00
2013-5-30,79.0,61.6,50.2,68.0,58.1,49.8,100,89,64,30.02,29.96,6,0,6,0.00
2013-5-31,79.5,67.9,55.0,65.7,60.8,54.5,100,80,59,30.03,29.86,8,0,9,0.00
2013-6-1,79.0,67.6,58.6,68.0,61.5,57.0,98,82,67,29.91,29.81,8,1,10,0.00
2013-6-2,71.1,63.5,58.6,63.7,59.5,56.8,96,87,76,29.81,29.72,10,1,12,0.00
2013-6-3,65.5,59.4,55.9,61.7,58.2,55.4,100,96,85,29.83,29.71,8,1,10,0.00
2013-6-4,65.1,59.6,52.0,57.4,48.9,42.3,100,70,45,29.99,29.74,11,2,11,0.00
2013-6-5,69.3,58.1,51.3,50.4,46.3,41.4,82,66,37,30.15,30.00,9,1,9,0.00
2013-6-6,68.5,58.0,48.0,53.6,49.9,43.9,96,77,42,30.22,30.14,5,0,6,0.00
2013-6-7,63.9,56.1,52.0,52.7,50.0,43.5,98,82,52,30.17,29.99,5,0,6,0.00
2013-6-8,62.6,56.9,52.3,59.7,55.7,51.8,100,96,84,29.99,29.62,8,1,12,0.00
2013-6-9,63.3,57.2,52.2,58.5,54.1,51.1,98,90,77,30.12,29.95,10,0,10,0.00
2013-6-10,67.8,58.7,53.8,57.7,53.8,50.5,99,85,57,30.21,30.06,8,0,8,0.00
2013-6-11,55.2,54.0,52.2,54.7,53.2,51.6,99,97,94,30.06,29.52,13,0,14,0.00
2013-6-12,57.0,54.3,51.1,57.0,53.9,50.7,100,99,95,29.70,29.46,6,1,8,0.00
2013-6-13,67.8,57.6,52.0,57.4,53.4,51.1,100,87,64,29.79,29.69,7,0,9,0.00
2013-6-14,64.4,55.9,51.6,56.1,51.8,47.8,98,87,65,29.74,29.66,4,0,6,0.00
2013-6-15,75.6,62.1,49.5,52.5,48.6,43.5,98,65,34,29.86,29.70,8,1,9,0.00
2013-6-16,75.2,62.6,54.7,56.7,53.2,50.0,93,73,45,29.89,29.72,6,0,6,0.00
2013-6-17,75.6,62.4,55.9,61.3,58.4,55.0,99,88,61,29.84,29.71,8,0,10,0.00
2013-6-18,67.3,61.0,55.6,58.8,55.7,52.7,99,84,62,29.94,29.82,5,0,5,0.00
2013-6-19,73.6,62.9,54.3,55.6,50.2,42.6,97,67,34,30.11,29.91,10,0,10,0.00
2013-6-20,73.9,61.4,51.4,58.3,53.2,48.6,98,77,45,30.24,30.11,9,0,9,0.00
2013-6-21,72.9,63.3,56.1,61.5,56.3,52.9,95,79,59,30.22,30.16,7,0,8,0.00
2013-6-22,74.5,63.5,56.5,65.8,58.8,53.8,94,85,70,30.20,30.11,5,0,6,0.00
2013-6-23,70.2,62.6,58.8,64.4,60.2,56.8,98,92,80,30.14,29.95,7,0,9,0.00
2013-6-24,86.5,71.0,60.6,72.9,66.1,59.7,100,86,61,29.96,29.78,6,0,7,0.00
2013-6-25,83.1,73.0,65.7,70.3,66.2,63.3,98,80,59,29.83,29.67,8,0,9,0.00
2013-6-26,70.9,64.4,57.9,70.2,63.7,57.2,100,98,93,29.88,29.68,5,0,5,0.00
2013-6-27,61.2,57.6,54.9,59.2,56.5,54.1,99,96,91,29.90,29.85,7,0,8,0.00
2013-6-28,63.9,59.5,55.8,63.9,59.4,55.2,100,100,98,29.87,29.60,8,1,9,0.00
2013-6-29,64.2,61.6,60.1,64.2,61.6,60.1,100,100,100,29.73,29.58,10,-3,11,0.00
2013-6-30,65.5,62.1,59.9,65.1,62.0,59.9,100,100,98,29.95,29.72,8,-21,8,0.00
2013-7-1,73.2,64.8,62.1,70.3,64.2,61.9,100,98,86,30.11,29.94,5,0,6,0.00
2013-7-2,65.5,60.5,57.4,65.3,60.2,56.8,100,99,96,30.22,30.10,6,0,12,0.00
2013-7-3,69.1,62.1,57.4,64.4,60.3,57.0,100,94,82,30.19,30.11,7,0,8,0.00
2013-7-4,86.5,72.7,61.7,72.7,67.7,61.2,100,86,59,30.14,30.03,7,0,7,0.00
2013-7-5,86.4,75.5,65.8,72.5,69.7,65.1,99,84,61,30.07,29.97,6,0,7,0.00
2013-7-6,87.6,77.6,68.2,73.8,69.9,64.9,99,79,55,29.99,29.87,5,1,7,0.00
2013-7-7,89.1,78.7,70.5,69.6,66.7,63.3,79,67,51,29.92,29.84,6,0,8,0.00
2013-7-8,76.8,68.2,61.5,70.3,64.0,57.2,94,87,75,30.07,29.88,4,0,5,0.00
2013-7-9,68.7,64.7,60.4,67.1,62.8,58.1,97,94,85,30.13,30.07,4,0,5,0.00
2013-7-10,70.2,64.4,61.9,65.5,62.5,60.3,99,94,83,30.10,29.79,5,0,5,0.00
2013-7-11,74.8,67.9,63.0,72.3,66.8,62.6,100,96,85,29.95,29.75,6,0,7,0.00
2013-7-12,79.5,68.4,59.5,66.4,61.1,57.7,98,79,53,30.21,29.94,7,0,7,0.00
2013-7-13,78.3,67.6,58.3,65.3,60.6,57.2,99,80,58,30.31,30.21,5,0,7,0.00
2013-7-14,85.3,71.3,60.6,72.1,64.8,58.8,98,81,60,30.28,30.16,5,0,8,0.00
2013-7-15,90.7,76.2,64.0,72.0,67.3,63.0,99,76,44,30.16,30.02,5,0,6,0.00
2013-7-16,90.3,77.5,68.7,72.3,66.9,58.6,93,71,50,30.17,30.04,5,0,6,0.00
2013-7-17,75.0,69.9,64.8,66.9,63.4,58.8,98,80,70,30.19,29.90,8,1,10,0.00
2013-7-18,84.4,72.5,66.2,70.2,65.8,60.3,100,82,49,29.99,29.90,5,-7,8,0.00
2013-7-19,80.8,70.7,66.0,73.6,68.2,65.1,99,92,76,29.96,29.62,8,1,9,0.00
2013-7-20,81.9,73.7,67.5,72.5,68.9,65.3,98,86,68,29.75,29.57,10,0,11,0.00
2013-7-21,73.4,66.4,60.4,65.3,58.8,55.8,93,77,61,30.03,29.75,7,0,8,0.00
2013-7-22,74.5,64.4,56.8,64.0,58.5,55.2,99,82,55,30.06,29.96,3,0,6,0.00
2013-7-23,68.0,64.6,61.3,67.8,64.1,59.5,100,99,94,29.96,29.52,4,0,6,0.00
2013-7-24,77.5,67.9,61.9,72.3,65.2,54.1,100,92,74,29.95,29.54,7,0,8,0.00
2013-7-25,72.1,62.9,56.7,61.3,56.9,52.0,98,81,60,30.13,29.95,6,0,7,0.00
2013-7-26,68.2,64.1,61.0,68.0,63.9,60.1,100,100,97,30.09,29.82,5,0,7,0.00
2013-7-27,76.5,66.2,60.4,68.2,63.1,60.4,100,90,73,30.05,29.81,8,1,8,0.00
2013-7-28,67.1,64.4,61.5,66.6,63.7,61.2,100,97,92,30.08,30.01,3,0,3,0.00
2013-7-29,71.4,64.8,59.5,67.1,63.5,59.2,100,96,84,30.07,29.98,5,0,6,0.00
2013-7-30,78.4,67.8,60.4,68.5,63.5,59.0,100,88,55,30.05,29.97,6,0,6,0.00
2013-7-31,77.7,66.3,57.9,63.9,59.9,56.7,98,81,58,30.09,30.02,7,-3,9,0.00
2013-8-1,75.0,66.5,59.4,67.3,62.9,58.5,99,89,65,30.05,29.91,6,0,8,0.00
2013-8-2,66.9,64.1,62.2,66.9,63.8,62.1,100,99,97,29.91,29.77,5,-3,7,0.00
2013-8-3,70.3,63.6,58.5,66.0,62.2,58.5,100,95,81,29.82,29.71,8,0,8,0.00
2013-8-4,74.7,65.8,58.3,65.1,60.7,56.8,99,84,69,29.78,29.71,7,0,10,0.00
2013-8-5,70.7,63.6,58.1,57.9,55.3,51.3,91,75,60,29.99,29.77,7,1,7,0.00
2013-8-6,73.0,64.4,53.1,58.5,54.1,49.5,89,70,54,30.15,29.99,8,0,8,0.00
2013-8-7,71.4,63.1,54.3,61.7,57.2,52.9,97,82,58,30.21,30.14,7,0,8,0.00
2013-8-8,64.8,62.5,59.9,64.6,61.8,58.8,100,97,92,30.16,30.04,7,0,7,0.00
2013-8-9,67.5,64.7,63.7,67.5,64.6,63.3,100,100,99,30.05,29.90,7,-21,7,0.00
2013-8-10,77.4,71.6,62.2,65.1,56.5,51.6,100,60,44,29.96,29.70,6,-38,7,0.00
2013-8-11,74.5,65.3,55.2,60.4,55.6,51.6,92,72,51,30.01,29.94,6,1,8,0.00
2013-8-12,75.9,66.1,58.6,63.0,59.4,55.8,96,80,56,29.99,29.89,5,0,8,0.00
2013-8-13,68.7,64.1,59.0,66.2,62.8,58.1,99,96,89,29.91,29.71,5,0,5,0.00
2013-8-14,73.6,64.5,59.9,66.7,61.4,51.3,100,90,67,29.81,29.59,8,1,11,0.00
2013-8-15,73.0,63.2,55.8,58.8,55.2,51.6,92,76,52,30.07,29.81,9,1,9,0.00
2013-8-16,73.9,63.9,55.9,62.4,58.5,55.4,100,84,57,30.18,30.06,7,0,8,0.00
2013-8-17,76.3,65.1,55.4,61.7,57.4,54.3,100,79,49,30.26,30.18,4,0,5,0.00
2013-8-18,73.8,64.2,55.4,61.5,58.9,54.3,99,84,61,30.26,30.03,6,0,6,0.00
2013-8-19,79.5,67.9,57.7,66.7,62.3,57.0,99,83,63,30.03,29.83,6,0,6,0.00
2013-8-20,79.2,70.0,62.8,68.9,63.8,60.6,98,82,65,30.06,29.91,7,0,7,0.00
2013-8-21,80.4,69.0,60.1,67.3,62.8,59.0,99,82,61,30.11,29.98,7,0,8,0.00
2013-8-22,77.7,69.1,63.1,68.2,65.0,62.2,98,87,70,29.99,29.74,7,0,8,0.00
2013-8-23,74.1,67.4,58.6,66.7,59.9,52.3,98,78,50,30.12,29.73,7,1,8,0.00
2013-8-24,75.9,63.6,52.5,55.2,51.5,45.3,93,68,39,30.29,30.12,5,0,6,0.00
2013-8-25,75.9,62.8,53.1,59.2,54.9,52.2,99,78,46,30.35,30.15,6,0,6,0.00
2013-8-26,69.4,63.9,59.0,63.9,60.8,55.4,95,90,81,30.16,29.85,8,0,8,0.00
2013-8-27,78.8,68.2,60.1,68.9,64.2,59.5,99,88,67,29.90,29.83,5,0,6,0.00
2013-8-28,75.0,65.3,61.0,67.1,63.0,60.4,100,93,74,29.99,29.87,5,0,7,0.00
2013-8-29,66.0,62.1,56.5,63.9,59.6,55.0,99,92,80,30.10,29.99,8,0,9,0.00
2013-8-30,67.8,60.9,52.3,63.7,57.9,51.4,98,90,76,30.00,29.77,7,0,8,0.00
2013-8-31,74.5,67.1,62.8,69.6,65.5,62.1,100,95,82,29.84,29.75,5,0,6,0.00
2013-9-1,76.8,68.8,63.9,72.3,67.3,63.9,100,95,83,29.94,29.76,6,0,7,0.00
2013-9-2,65.8,63.8,61.2,65.8,63.6,60.8,100,99,98,29.97,29.75,9,-18,10,0.00
2013-9-3,72.1,66.6,64.8,70.7,66.3,64.4,100,99,94,29.76,29.69,3,0,5,0.00
2013-9-4,74.8,66.7,61.9,65.3,62.4,58.3,100,87,63,29.87,29.71,6,0,9,0.00
2013-9-5,64.9,59.2,52.3,60.6,53.4,45.0,99,82,51,30.11,29.84,7,0,8,0.00
2013-9-6,64.2,56.3,45.7,54.0,47.4,41.0,97,74,49,30.19,30.03,7,1,7,0.00
2013-9-7,67.6,60.8,56.5,59.5,56.7,53.6,96,87,67,30.04,29.77,7,1,8,0.00
2013-9-8,60.6,58.4,51.4,59.2,53.6,43.3,99,85,60,30.02,29.67,12,2,16,0.00
2013-9-9,62.4,55.2,47.1,55.8,47.7,42.8,91,76,57,30.18,30.02,9,1,11,0.00
2013-9-10,64.9,60.7,57.9,60.3,58.3,55.2,99,92,84,30.12,30.05,9,1,11,0.00
2013-9-11,71.1,64.9,59.5,68.7,64.0,59.2,100,97,91,30.06,29.89,8,0,9,0.00
2013-9-12,74.8,65.6,62.4,71.8,65.0,62.1,100,98,84,30.01,29.67,7,1,11,0.00
2013-9-13,65.8,63.1,58.6,65.8,63.1,58.6,100,100,100,29.68,29.57,11,0,11,0.00
2013-9-14,68.4,61.6,57.4,62.2,58.9,54.7,100,91,75,29.99,29.65,5,1,5,0.00
2013-9-15,64.0,57.4,51.1,55.9,53.5,50.5,100,87,69,30.11,29.99,10,0,10,0.00
2013-9-16,63.3,56.3,47.1,57.7,53.1,38.5,99,89,70,30.22,29.95,10,1,11,0.00
2013-9-17,63.1,51.8,43.3,51.4,44.0,37.9,95,76,55,30.36,30.22,7,1,9,0.00
2013-9-18,65.8,56.1,46.0,55.2,49.8,45.3,99,81,51,30.28,30.08,5,0,8,0.00
2013-9-19,72.7,59.5,48.9,57.2,51.8,47.8,99,77,52,30.10,30.00,5,0,6,0.00
2013-9-20,72.0,59.7,51.1,59.5,54.1,49.3,99,83,58,30.10,30.01,5,0,5,0.00
2013-9-21,66.4,59.4,53.8,61.0,58.0,52.9,100,95,82,30.05,29.81,8,1,10,0.00
2013-9-22,65.3,61.6,55.9,64.2,60.6,51.8,100,96,86,29.81,29.60,14,2,15,0.00
2013-9-23,55.9,52.2,47.5,52.0,45.8,43.3,87,79,70,29.87,29.68,11,4,14,0.00
2013-9-24,52.2,50.7,46.6,47.5,45.5,43.2,94,82,75,29.87,29.78,9,3,10,0.00
2013-9-25,57.7,53.5,50.2,51.4,48.6,46.8,91,84,72,29.94,29.81,9,2,11,0.00
2013-9-26,60.1,55.4,50.7,53.4,50.7,47.8,92,84,74,30.10,29.94,9,1,11,0.00
2013-9-27,68.2,59.1,52.9,56.8,53.9,51.4,98,84,60,30.23,30.09,4,0,6,0.00
2013-9-28,66.6,56.1,49.6,57.0,52.4,48.4,99,88,65,30.34,30.23,7,0,7,0.00
2013-9-29,62.1,53.9,46.8,56.5,51.4,46.4,100,92,74,30.27,30.12,6,0,7,0.00
2013-9-30,62.1,54.4,47.8,55.4,52.0,47.3,99,92,73,30.14,29.95,3,0,4,0.00
2013-10-1,70.9,59.9,53.6,58.1,53.6,46.8,98,82,45,29.94,29.79,7,0,9,0.00
2013-10-2,72.0,61.8,52.2,62.4,57.0,51.8,100,85,62,29.85,29.70,5,0,6,0.00
2013-10-3,70.5,62.8,52.0,54.1,50.5,48.2,91,65,47,30.04,29.85,8,1,10,0.00
2013-10-4,66.4,57.1,50.0,55.0,50.4,44.4,97,80,57,30.09,30.00,4,0,5,0.00
2013-10-5,59.4,54.0,48.2,50.5,47.4,43.2,94,79,65,30.15,30.08,2,0,4,0.00
2013-10-6,56.7,51.0,44.8,50.2,42.7,37.0,95,74,52,30.30,30.14,7,-3,7,0.00
2013-10-7,63.7,57.9,47.8,63.7,56.7,46.8,100,96,89,30.25,29.80,16,2,19,0.00
2013-10-8,64.4,55.9,45.1,64.4,48.9,41.9,100,79,57,30.38,29.80,11,2,14,0.00
2013-10-9,57.9,48.9,41.0,47.1,43.8,39.6,97,84,59,30.48,30.36,5,0,6,0.00
2013-10-10,59.2,51.6,45.5,52.2,48.4,44.8,100,89,67,30.36,30.19,6,0,7,0.00
2013-10-11,69.4,55.3,47.7,57.6,51.4,47.1,99,88,57,30.19,30.11,3,-4,5,0.00
2013-10-12,58.6,52.6,44.4,53.8,48.6,43.3,97,87,68,30.43,30.20,9,0,9,0.00
2013-10-13,56.5,49.2,43.2,48.7,44.9,40.8,99,86,58,30.47,30.39,4,0,6,0.00
2013-10-14,57.7,51.6,44.6,51.3,48.0,43.7,99,88,72,30.39,30.25,8,0,8,0.00
2013-10-15,63.5,55.4,49.6,55.2,52.2,48.7,99,89,72,30.28,30.21,4,0,5,0.00
2013-10-16,59.2,54.6,50.5,55.8,53.6,50.0,99,97,86,30.23,29.88,5,0,8,0.00
2013-10-17,58.5,54.7,51.3,57.4,54.3,50.9,100,99,95,29.88,29.75,5,0,5,0.00
2013-10-18,63.0,56.4,50.2,59.5,53.4,48.2,100,90,71,29.79,29.56,10,1,13,0.00
2013-10-19,60.4,54.0,48.9,50.9,47.6,43.5,94,79,55,29.91,29.78,7,1,10,0.00
2013-10-20,59.7,55.5,50.4,55.6,45.7,34.9,98,72,42,29.91,29.66,11,2,12,0.00
2013-10-21,57.6,51.2,46.6,49.6,42.2,36.3,93,72,52,30.05,29.91,8,1,8,0.00
2013-10-22,60.3,55.2,49.5,56.3,52.2,44.2,97,90,81,30.01,29.68,11,1,15,0.00
2013-10-23,52.9,46.8,40.8,44.6,40.7,36.1,97,80,55,29.75,29.56,5,-3,7,0.00
2013-10-24,48.9,45.9,42.1,43.3,35.4,29.1,93,68,51,29.77,29.56,9,2,11,0.00
2013-10-25,50.0,44.9,41.4,37.4,34.9,31.6,83,69,55,30.05,29.77,11,3,13,0.00
2013-10-26,51.3,43.9,38.5,44.1,36.2,28.9,96,75,55,30.10,29.87,12,2,16,0.00
2013-10-27,53.8,47.1,42.1,44.8,40.7,33.4,96,79,62,29.96,29.76,11,2,13,0.00
2013-10-28,53.1,45.2,38.7,43.5,35.8,30.0,78,70,55,30.32,29.96,14,3,17,0.00
2013-10-29,45.1,38.2,29.7,34.7,29.5,24.3,92,72,44,30.44,30.31,7,1,8,0.00
2013-10-30,46.9,40.1,34.0,37.2,32.8,27.0,97,77,49,30.34,30.15,7,1,8,0.00
2013-10-31,56.5,45.9,34.5,56.1,43.0,32.0,99,90,67,30.25,29.80,17,1,17,0.00
2013-11-1,61.7,58.5,55.9,60.8,57.1,54.1,99,95,86,29.80,29.34,24,4,24,0.00
2013-11-2,59.9,53.9,47.3,54.1,49.5,44.6,97,86,70,29.73,29.52,6,1,8,0.00
2013-11-3,48.6,39.5,35.1,44.8,30.4,23.9,94,71,51,30.37,29.72,12,3,14,0.00
2013-11-4,40.1,35.0,30.6,27.9,25.2,22.8,80,68,54,30.71,30.38,13,2,14,0.00
2013-11-5,46.4,39.4,29.7,39.4,33.4,25.9,91,79,68,30.73,30.50,13,1,13,0.00
2013-11-6,53.1,49.2,44.4,50.7,44.8,39.2,93,85,78,30.51,29.99,14,2,14,0.00
2013-11-7,57.4,52.2,40.6,56.3,50.1,36.1,98,93,81,29.99,29.61,14,3,14,0.00
2013-11-8,44.1,40.5,37.8,36.5,31.0,28.6,85,69,59,29.91,29.71,14,4,14,0.00
2013-11-9,42.3,38.2,31.5,30.6,27.2,23.5,79,65,52,30.11,29.91,14,4,14,0.00
2013-11-10,47.1,40.9,31.8,45.1,38.1,25.7,97,90,73,30.09,29.68,10,1,11,0.00
2013-11-11,48.4,41.6,38.7,42.1,35.7,32.2,97,80,64,29.97,29.70,14,3,20,0.00
2013-11-12,48.4,36.6,30.6,39.4,27.0,19.6,83,68,61,30.05,29.80,14,2,16,0.00
2013-11-13,34.0,30.5,27.7,23.7,19.9,16.9,75,65,51,30.17,30.04,15,6,17,0.00
2013-11-14,45.7,39.6,32.5,36.9,31.1,23.4,94,72,59,30.08,29.95,11,2,11,0.00
2013-11-15,50.9,42.7,36.0,42.3,37.4,32.7,98,83,50,30.18,30.06,7,0,8,0.00
2013-11-16,48.4,41.2,37.0,44.6,39.0,35.8,98,92,79,30.34,30.18,4,0,4,0.00
2013-11-17,52.3,44.6,34.2,50.7,42.8,33.6,100,94,80,30.38,29.98,11,0,11,0.00
2013-11-18,57.7,53.1,46.0,57.7,51.8,44.8,100,95,88,29.98,29.47,25,2,25,0.00
2013-11-19,46.4,39.2,34.9,45.1,29.4,22.5,96,68,54,30.11,29.53,18,6,20,0.00
2013-11-20,37.8,33.7,30.6,23.4,18.0,12.7,64,53,36,30.61,30.11,24,6,24,0.00
2013-11-21,47.1,37.5,28.8,35.8,25.6,18.7,86,63,37,30.61,30.34,7,1,8,0.00
2013-11-22,43.2,38.6,35.1,34.9,30.2,23.0,87,72,48,30.33,29.75,5,0,6,0.00
2013-11-23,41.5,37.1,31.3,40.8,28.4,20.3,97,72,51,29.75,29.61,18,5,22,0.00
2013-11-24,31.5,24.9,22.3,23.4,14.3,10.2,72,64,56,29.89,29.59,25,9,25,0.00
2013-11-25,32.2,24.6,18.9,22.1,11.1,4.8,71,57,37,30.31,29.89,18,6,21,0.00
2013-11-26,39.9,35.5,30.0,37.2,31.2,19.9,97,85,64,30.31,30.19,12,1,13,0.00
2013-11-27,57.4,50.5,36.9,57.0,50.1,36.0,100,99,96,30.19,29.09,23,3,26,0.00
2013-11-28,43.0,32.1,23.2,41.9,24.9,12.9,97,75,51,30.35,29.22,19,6,21,0.00
2013-11-29,25.5,22.9,20.1,16.0,13.8,10.9,82,68,57,30.72,30.35,12,4,13,0.00
2013-11-30,36.7,24.0,15.3,29.1,17.4,12.4,91,76,54,30.80,30.43,10,1,14,0.00
2013-12-1,41.9,38.4,34.9,39.9,36.0,28.9,99,91,75,30.43,30.09,13,1,16,0.00
2013-12-2,45.3,40.9,36.0,44.1,40.4,35.8,99,98,94,30.09,29.92,7,0,8,0.00
2013-12-3,40.6,39.0,35.4,40.6,38.4,33.6,100,98,91,29.92,29.80,12,-2,14,0.00
2013-12-4,41.5,36.5,31.1,33.6,31.5,28.0,93,82,71,30.20,29.80,15,5,16,0.00
2013-12-5,49.6,38.8,28.2,49.5,37.1,27.0,99,94,86,30.29,29.92,9,0,13,0.00
2013-12-6,50.2,44.3,37.2,50.2,42.9,32.0,100,95,77,30.08,29.84,8,2,8,0.00
2013-12-7,37.8,33.1,26.8,32.9,23.5,14.4,96,68,54,30.37,30.05,13,4,17,0.00
2013-12-8,27.0,25.4,23.2,16.7,13.8,10.6,71,61,52,30.60,30.37,15,4,16,0.00
2013-12-9,36.0,28.0,22.6,35.6,21.9,9.3,99,79,55,30.57,29.80,7,1,9,0.00
2013-12-10,35.4,31.4,24.4,34.3,28.3,16.0,99,89,68,29.86,29.70,12,-1,14,0.00
2013-12-11,29.8,26.5,22.6,21.4,18.0,15.4,83,70,56,30.09,29.86,10,4,14,0.00
2013-12-12,23.4,17.0,14.0,18.0,7.3,-0.2,80,65,50,30.22,29.97,14,-6,15,0.00
2013-12-13,24.4,19.1,7.2,17.1,8.9,-0.8,81,65,43,30.37,29.86,18,6,20,0.00
2013-12-14,12.6,8.1,3.2,4.8,-0.4,-3.5,85,68,51,30.62,30.37,14,3,15,0.00
2013-12-15,30.2,19.6,11.5,29.5,17.8,5.0,98,93,74,30.44,29.30,16,3,16,0.00
2013-12-16,23.4,18.6,8.1,19.0,12.6,1.8,94,78,56,30.18,29.63,16,5,18,0.00
2013-12-17,17.8,10.2,-0.6,16.2,5.1,-5.3,93,79,67,30.32,30.03,17,2,17,0.00
2013-12-18,24.3,22.4,17.8,22.8,20.7,16.2,96,93,87,30.04,29.79,8,2,9,0.00
2013-12-19,34.0,30.8,23.0,30.4,27.6,20.3,92,88,83,30.08,29.91,5,1,7,0.00
2013-12-20,36.7,33.8,30.6,35.1,32.6,29.3,98,95,91,30.15,29.91,3,-3,4,0.00
2013-12-21,36.9,33.3,30.7,36.7,33.1,30.6,99,99,98,29.97,29.83,5,0,7,0.00
2013-12-22,33.3,31.8,30.0,33.1,31.5,29.5,99,99,98,30.09,29.86,7,0,9,0.00
2013-12-23,33.6,32.3,29.1,33.6,32.1,28.6,100,99,98,30.12,29.96,3,0,4,0.00
2013-12-24,33.8,25.2,14.4,33.6,22.7,10.9,100,90,84,30.14,30.03,11,4,14,0.00
2013-12-25,19.0,14.5,10.8,15.4,11.4,7.5,91,87,81,30.56,30.12,16,4,18,0.00
2013-12-26,33.3,24.2,11.8,32.5,23.0,9.0,98,95,88,30.53,30.04,5,0,7,0.00
2013-12-27,30.6,25.8,19.6,27.5,23.6,17.6,96,91,85,30.19,30.06,8,1,9,0.00
2013-12-28,37.6,31.8,21.7,34.9,29.5,20.1,97,91,86,30.17,29.91,7,1,9,0.00
2013-12-29,38.8,34.5,31.1,37.2,33.9,30.4,99,97,93,30.04,29.48,6,0,8,0.00
2013-12-30,33.1,21.9,7.9,32.9,19.6,3.4,99,91,80,30.17,29.44,15,3,16,0.00
2013-12-31,11.1,7.6,3.0,8.6,3.5,-0.4,90,83,68,30.19,30.04,11,1,14,0.00
2014-1-1,20.3,14.2,4.6,14.0,8.6,1.0,92,78,67,30.43,30.10,11,3,13,0.00
2014-1-2,5.9,-1.3,-4.4,2.7,-5.1,-9.4,89,83,77,30.49,30.00,19,3,19,0.00